createdAt,value
2019-01-05T00:00:23.286Z,2.40
2019-01-05T00:02:28.604Z,2.40
2019-01-05T00:04:50.450Z,2.40
2019-01-05T00:06:56.448Z,2.40
2019-01-05T00:09:18.620Z,2.40
2019-01-05T00:11:27.290Z,2.50
2019-01-05T00:13:49.315Z,2.40
2019-01-05T00:15:54.732Z,2.40
2019-01-05T00:18:09.962Z,2.40
2019-01-05T00:20:18.127Z,2.40
2019-01-05T00:22:27.006Z,2.40
2019-01-05T00:24:41.927Z,2.40
2019-01-05T00:26:53.634Z,2.40
2019-01-05T00:28:59.563Z,2.40
2019-01-05T00:31:18.043Z,2.40
2019-01-05T00:33:28.438Z,2.40
2019-01-05T00:35:48.991Z,2.40
2019-01-05T00:38:00.621Z,2.40
2019-01-05T00:40:09.538Z,2.40
2019-01-05T00:42:21.582Z,2.40
2019-01-05T00:44:27.361Z,2.30
2019-01-05T00:46:49.703Z,2.40
2019-01-05T00:48:58.786Z,2.30
2019-01-05T00:51:09.327Z,2.40
2019-01-05T00:53:15.834Z,2.40
2019-01-05T00:55:24.673Z,2.40
2019-01-05T00:57:48.171Z,2.40
2019-01-05T00:59:59.600Z,2.30
2019-01-05T01:02:22.024Z,2.30
2019-01-05T01:04:32.432Z,2.30
2019-01-05T01:06:39.037Z,2.30
2019-01-05T01:08:53.362Z,2.30
2019-01-05T01:11:14.139Z,2.40
2019-01-05T01:13:38.591Z,2.40
2019-01-05T01:15:44.507Z,2.40
2019-01-05T01:18:06.126Z,2.30
2019-01-05T01:20:17.776Z,2.30
2019-01-05T01:22:40.039Z,2.30
2019-01-05T01:24:45.602Z,2.30
2019-01-05T01:26:51.209Z,2.40
2019-01-05T01:29:13.721Z,2.40
2019-01-05T01:31:25.078Z,2.30
2019-01-05T01:33:49.899Z,2.30
2019-01-05T01:35:58.129Z,2.30
2019-01-05T01:38:24.256Z,2.30
2019-01-05T01:40:29.664Z,2.30
2019-01-05T01:42:37.541Z,2.30
2019-01-05T01:44:52.420Z,2.30
2019-01-05T01:47:16.755Z,2.40
2019-01-05T01:49:26.310Z,2.30
2019-01-05T01:51:40.821Z,2.30
2019-01-05T01:54:04.256Z,2.20
2019-01-05T01:56:28.796Z,2.30
2019-01-05T01:58:42.693Z,2.30
2019-01-05T02:00:50.922Z,2.30
2019-01-05T02:03:12.831Z,2.30
2019-01-05T02:05:21.776Z,2.20
2019-01-05T02:07:38.798Z,2.20
2019-01-05T02:10:02.030Z,2.30
2019-01-05T02:12:10.369Z,2.30
2019-01-05T02:14:28.143Z,2.30
2019-01-05T02:16:52.092Z,2.40
2019-01-05T02:19:00.678Z,2.40
2019-01-05T02:21:23.922Z,2.30
2019-01-05T02:23:38.449Z,2.40
2019-01-05T02:26:15.148Z,2.40
2019-01-05T02:28:26.134Z,2.30
2019-01-05T02:30:57.191Z,2.30
2019-01-05T02:33:17.361Z,2.30
2019-01-05T02:35:54.535Z,2.30
2019-01-05T02:38:20.568Z,2.30
2019-01-05T02:40:34.459Z,2.30
2019-01-05T02:43:32.540Z,2.20
2019-01-05T02:45:43.496Z,2.20
2019-01-05T02:48:19.976Z,2.20
2019-01-05T02:50:43.096Z,2.20
2019-01-05T02:53:09.057Z,2.20
2019-01-05T02:55:20.104Z,2.20
2019-01-05T02:57:56.238Z,2.20
2019-01-05T03:00:19.140Z,2.20
2019-01-05T03:02:39.200Z,2.20
2019-01-05T03:05:20.347Z,2.20
2019-01-05T03:08:01.506Z,2.20
2019-01-05T03:10:21.756Z,2.20
2019-01-05T03:13:02.393Z,2.10
2019-01-05T03:15:34.521Z,2.20
2019-01-05T03:17:54.878Z,2.20
2019-01-05T03:20:46.986Z,2.20
2019-01-05T03:23:16.409Z,2.20
2019-01-05T03:26:14.411Z,2.20
2019-01-05T03:28:40.168Z,2.20
2019-01-05T03:31:03.307Z,2.20
2019-01-05T03:33:50.888Z,2.20
2019-01-05T03:36:37.989Z,2.10
2019-01-05T03:39:10.641Z,2.10
2019-01-05T03:41:56.818Z,2.10
2019-01-05T03:44:35.121Z,2.10
2019-01-05T03:47:14.817Z,2.10
2019-01-05T03:49:45.791Z,2.10
2019-01-05T03:52:20.610Z,2.00
2019-01-05T03:54:34.285Z,2.00
2019-01-05T03:56:54.535Z,2.10
2019-01-05T03:59:11.781Z,2.00
2019-01-05T04:01:28.779Z,2.00
2019-01-05T04:03:56.274Z,1.90
2019-01-05T04:06:22.858Z,1.90
2019-01-05T04:08:36.535Z,1.90
2019-01-05T04:10:56.648Z,1.90
2019-01-05T04:13:42.656Z,1.80
2019-01-05T04:16:27.450Z,1.80
2019-01-05T04:18:41.762Z,1.80
2019-01-05T04:21:14.357Z,1.70
2019-01-05T04:24:03.607Z,1.70
2019-01-05T04:26:40.283Z,1.70
2019-01-05T04:29:09.919Z,1.60
2019-01-05T04:31:37.621Z,1.60
2019-01-05T04:33:54.723Z,1.60
2019-01-05T04:36:29.833Z,1.60
2019-01-05T04:39:12.026Z,1.50
2019-01-05T04:41:40.742Z,1.50
2019-01-05T04:44:03.945Z,1.50
2019-01-05T04:46:42.049Z,1.50
2019-01-05T04:49:14.354Z,1.50
2019-01-05T04:51:45.294Z,1.50
2019-01-05T04:54:26.425Z,1.50
2019-01-05T04:56:56.484Z,1.50
2019-01-05T04:59:28.870Z,1.50
2019-01-05T05:01:56.740Z,1.50
2019-01-05T05:04:33.536Z,1.50
2019-01-05T05:07:01.128Z,1.50
2019-01-05T05:09:34.893Z,1.50
2019-01-05T05:12:04.274Z,1.50
2019-01-05T05:14:39.723Z,1.40
2019-01-05T05:17:11.465Z,1.40
2019-01-05T05:19:49.387Z,1.40
2019-01-05T05:21:59.001Z,1.40
2019-01-05T05:24:34.438Z,1.40
2019-01-05T05:26:51.734Z,1.40
2019-01-05T05:29:08.155Z,1.40
2019-01-05T05:31:54.341Z,1.40
2019-01-05T05:34:29.283Z,1.40
2019-01-05T05:37:18.316Z,1.30
2019-01-05T05:39:58.591Z,1.30
2019-01-05T05:42:58.230Z,1.30
2019-01-05T05:45:51.882Z,1.40
2019-01-05T05:48:22.772Z,1.40
2019-01-05T05:50:48.930Z,1.40
2019-01-05T05:53:18.325Z,1.40
2019-01-05T05:55:56.724Z,1.40
2019-01-05T05:58:10.769Z,1.40
2019-01-05T06:00:43.007Z,1.40
2019-01-05T06:03:30.685Z,1.30
2019-01-05T06:05:47.955Z,1.40
2019-01-05T06:08:22.757Z,1.40
2019-01-05T06:11:06.168Z,1.40
2019-01-05T06:13:48.949Z,1.40
2019-01-05T06:16:25.596Z,1.40
2019-01-05T06:19:10.051Z,1.40
2019-01-05T06:21:33.276Z,1.40
2019-01-05T06:24:22.288Z,1.40
2019-01-05T06:26:49.975Z,1.40
2019-01-05T06:29:13.133Z,1.50
2019-01-05T06:31:29.656Z,1.40
2019-01-05T06:33:40.828Z,1.40
2019-01-05T06:36:05.569Z,1.30
2019-01-05T06:38:29.545Z,1.40
2019-01-05T06:41:04.315Z,1.40
2019-01-05T06:43:36.689Z,1.40
2019-01-05T06:46:20.036Z,1.40
2019-01-05T06:48:37.047Z,1.40
2019-01-05T06:51:04.971Z,1.40
2019-01-05T06:53:28.217Z,1.40
2019-01-05T06:56:05.037Z,1.40
2019-01-05T06:58:38.920Z,1.40
2019-01-05T07:01:25.286Z,1.40
2019-01-05T07:04:06.338Z,1.40
2019-01-05T07:06:46.180Z,1.40
2019-01-05T07:09:26.216Z,1.40
2019-01-05T07:11:55.194Z,1.40
2019-01-05T07:14:27.549Z,1.40
2019-01-05T07:16:44.570Z,1.40
2019-01-05T07:19:30.608Z,1.40
2019-01-05T07:21:58.567Z,1.40
2019-01-05T07:24:56.407Z,1.40
2019-01-05T07:27:27.327Z,1.50
2019-01-05T07:30:07.473Z,1.40
2019-01-05T07:32:35.093Z,1.40
2019-01-05T07:35:21.237Z,1.40
2019-01-05T07:38:04.051Z,1.40
2019-01-05T07:40:39.508Z,1.50
2019-01-05T07:43:05.943Z,1.50
2019-01-05T07:45:35.210Z,1.50
2019-01-05T07:48:27.293Z,1.50
2019-01-05T07:51:07.693Z,1.50
2019-01-05T07:53:27.577Z,1.50
2019-01-05T07:56:27.400Z,1.60
2019-01-05T07:58:53.581Z,1.50
2019-01-05T08:01:41.250Z,1.50
2019-01-05T08:04:23.772Z,1.50
2019-01-05T08:06:56.175Z,1.60
2019-01-05T08:09:25.930Z,1.60
2019-01-05T08:11:53.226Z,1.60
2019-01-05T08:14:41.984Z,1.60
2019-01-05T08:17:19.073Z,1.60
2019-01-05T08:20:04.702Z,1.60
2019-01-05T08:22:31.879Z,1.60
2019-01-05T08:25:12.810Z,1.60
2019-01-05T08:27:33.282Z,1.60
2019-01-05T08:30:17.521Z,1.60
2019-01-05T08:32:49.911Z,1.60
2019-01-05T08:35:34.219Z,1.60
2019-01-05T08:37:58.991Z,1.60
2019-01-05T08:40:44.992Z,1.60
2019-01-05T08:43:18.763Z,1.60
2019-01-05T08:46:16.687Z,1.60
2019-01-05T08:48:34.213Z,1.60
2019-01-05T08:51:21.906Z,1.60
2019-01-05T08:54:05.308Z,1.60
2019-01-05T08:56:35.605Z,1.50
2019-01-05T08:59:01.357Z,1.60
2019-01-05T09:01:49.156Z,1.60
2019-01-05T09:04:26.248Z,1.70
2019-01-05T09:06:55.663Z,1.70
2019-01-05T09:09:38.533Z,1.70
2019-01-05T09:12:13.825Z,1.70
2019-01-05T09:14:41.626Z,1.70
2019-01-05T09:17:33.374Z,1.70
2019-01-05T09:19:59.952Z,1.80
2019-01-05T09:22:34.003Z,1.70
2019-01-05T09:25:12.467Z,1.70
2019-01-05T09:27:32.664Z,1.70
2019-01-05T09:30:18.445Z,1.70
2019-01-05T09:32:29.385Z,1.80
2019-01-05T09:34:46.632Z,1.80
2019-01-05T09:37:16.995Z,1.80
2019-01-05T09:39:54.039Z,1.80
2019-01-05T09:42:25.104Z,1.90
2019-01-05T09:45:17.523Z,1.90
2019-01-05T09:48:00.382Z,1.90
2019-01-05T09:50:34.168Z,1.90
2019-01-05T09:53:23.234Z,1.90
2019-01-05T09:55:50.865Z,1.90
2019-01-05T09:58:16.934Z,1.90
2019-01-05T10:01:07.490Z,1.90
2019-01-05T10:04:05.899Z,1.90
2019-01-05T10:06:30.449Z,2.00
2019-01-05T10:08:56.872Z,2.00
2019-01-05T10:11:19.897Z,2.00
2019-01-05T10:13:52.133Z,2.10
2019-01-05T10:16:38.385Z,2.00
2019-01-05T10:18:58.545Z,2.10
2019-01-05T10:21:38.914Z,2.10
2019-01-05T10:23:49.810Z,2.10
2019-01-05T10:26:32.434Z,2.10
2019-01-05T10:28:49.650Z,2.20
2019-01-05T10:31:00.700Z,2.20
2019-01-05T10:33:32.942Z,2.20
2019-01-05T10:36:16.039Z,2.20
2019-01-05T10:38:38.867Z,2.20
2019-01-05T10:41:02.791Z,2.20
2019-01-05T10:43:37.121Z,2.20
2019-01-05T10:45:51.257Z,2.20
2019-01-05T10:48:11.451Z,2.20
2019-01-05T10:50:51.540Z,2.10
2019-01-05T10:53:14.842Z,2.20
2019-01-05T10:55:57.806Z,2.20
2019-01-05T10:58:42.369Z,2.30
2019-01-05T11:01:40.426Z,2.30
2019-01-05T11:04:17.324Z,2.30
2019-01-05T11:06:51.045Z,2.20
2019-01-05T11:09:38.815Z,2.30
2019-01-05T11:12:12.557Z,2.30
2019-01-05T11:14:38.050Z,2.30
2019-01-05T11:17:10.660Z,2.40
2019-01-05T11:19:30.991Z,2.40
2019-01-05T11:21:51.196Z,2.40
2019-01-05T11:24:43.561Z,2.40
2019-01-05T11:26:54.499Z,2.40
2019-01-05T11:29:49.232Z,2.50
2019-01-05T11:32:03.044Z,2.50
2019-01-05T11:34:42.607Z,2.50
2019-01-05T11:37:08.746Z,2.50
2019-01-05T11:39:36.861Z,2.60
2019-01-05T11:42:12.081Z,2.60
2019-01-05T11:44:42.851Z,2.50
2019-01-05T11:47:15.506Z,2.60
2019-01-05T11:49:38.569Z,2.60
2019-01-05T11:52:18.714Z,2.60
2019-01-05T11:55:00.087Z,2.70
2019-01-05T11:57:33.994Z,2.70
2019-01-05T11:59:51.560Z,2.70
2019-01-05T12:02:27.179Z,2.70
2019-01-05T12:05:04.344Z,2.80
2019-01-05T12:07:40.611Z,2.80
2019-01-05T12:10:14.669Z,2.80
2019-01-05T12:13:01.964Z,2.80
2019-01-05T12:15:48.177Z,2.90
2019-01-05T12:18:35.807Z,2.90
2019-01-05T12:21:08.084Z,2.90
2019-01-05T12:23:34.187Z,2.90
2019-01-05T12:25:51.304Z,2.90
2019-01-05T12:28:32.796Z,3.00
2019-01-05T12:30:55.912Z,3.00
2019-01-05T12:33:48.164Z,3.10
2019-01-05T12:36:29.775Z,3.10
2019-01-05T12:39:07.232Z,3.10
2019-01-05T12:41:27.727Z,3.20
2019-01-05T12:44:09.763Z,3.20
2019-01-05T12:46:40.583Z,3.30
2019-01-05T12:49:24.848Z,3.30
2019-01-05T12:52:14.118Z,3.30
2019-01-05T12:54:44.849Z,3.40
2019-01-05T12:57:11.003Z,3.40
2019-01-05T12:59:34.359Z,3.40
2019-01-05T13:01:45.406Z,3.40
2019-01-05T13:04:31.575Z,3.40
2019-01-05T13:06:54.933Z,3.50
2019-01-05T13:09:40.681Z,3.50
2019-01-05T13:12:11.040Z,3.50
2019-01-05T13:14:50.872Z,3.50
2019-01-05T13:17:12.983Z,3.60
2019-01-05T13:19:43.368Z,3.60
2019-01-05T13:22:32.241Z,3.60
2019-01-05T13:25:17.883Z,3.70
2019-01-05T13:27:54.720Z,3.70
2019-01-05T13:30:54.355Z,3.70
2019-01-05T13:33:48.254Z,3.70
2019-01-05T13:36:17.602Z,3.80
2019-01-05T13:38:51.225Z,3.80
2019-01-05T13:41:18.829Z,3.80
2019-01-05T13:43:57.291Z,3.80
2019-01-05T13:46:31.209Z,3.80
2019-01-05T13:49:11.869Z,3.80
2019-01-05T13:51:37.931Z,3.90
2019-01-05T13:53:50.637Z,3.90
2019-01-05T13:56:01.468Z,4.00
2019-01-05T13:58:18.880Z,3.90
2019-01-05T14:00:42.344Z,4.00
2019-01-05T14:02:48.326Z,4.00
2019-01-05T14:05:10.044Z,4.10
2019-01-05T14:07:21.201Z,4.20
2019-01-05T14:09:41.627Z,4.20
2019-01-05T14:11:52.941Z,4.20
2019-01-05T14:14:14.515Z,4.30
2019-01-05T14:16:37.772Z,4.30
2019-01-05T14:19:01.988Z,4.40
2019-01-05T14:21:23.473Z,4.40
2019-01-05T14:23:46.793Z,4.40
2019-01-05T14:26:08.863Z,4.50
2019-01-05T14:28:14.149Z,4.50
2019-01-05T14:30:22.386Z,4.60
2019-01-05T14:32:39.905Z,4.60
2019-01-05T14:35:00.706Z,4.60
2019-01-05T14:37:14.702Z,4.50
2019-01-05T14:39:25.930Z,4.60
2019-01-05T14:41:31.262Z,4.60
2019-01-05T14:43:42.066Z,4.50
2019-01-05T14:46:02.389Z,4.60
2019-01-05T14:48:10.457Z,4.60
2019-01-05T14:50:24.709Z,4.70
2019-01-05T14:52:30.090Z,4.70
2019-01-05T14:54:41.110Z,4.60
2019-01-05T14:57:02.938Z,4.70
2019-01-05T14:59:24.766Z,4.60
2019-01-05T15:01:33.176Z,4.70
2019-01-05T15:03:55.218Z,4.70
2019-01-05T15:06:18.801Z,4.70
2019-01-05T15:08:39.453Z,4.70
2019-01-05T15:10:44.875Z,4.70
2019-01-05T15:12:59.351Z,4.70
2019-01-05T15:15:21.381Z,4.70
2019-01-05T15:17:43.200Z,4.80
2019-01-05T15:19:48.726Z,4.80
2019-01-05T15:22:10.551Z,4.80
2019-01-05T15:24:21.450Z,4.80
2019-01-05T15:26:33.608Z,4.80
2019-01-05T15:28:42.156Z,4.90
2019-01-05T15:30:53.277Z,4.80
2019-01-05T15:33:21.689Z,4.90
2019-01-05T15:35:25.509Z,4.90
2019-01-05T15:37:39.825Z,4.90
2019-01-05T15:39:45.208Z,4.90
2019-01-05T15:42:05.531Z,4.90
2019-01-05T15:44:16.989Z,4.90
2019-01-05T15:46:31.168Z,4.90
2019-01-05T15:48:53.674Z,4.90
2019-01-05T15:51:18.441Z,4.80
2019-01-05T15:53:36.024Z,4.80
2019-01-05T15:55:56.568Z,4.80
2019-01-05T15:58:04.655Z,4.80
2019-01-05T16:00:26.365Z,4.80
2019-01-05T16:02:37.765Z,4.80
2019-01-05T16:04:45.914Z,4.80
2019-01-05T16:07:09.907Z,4.80
2019-01-05T16:09:31.489Z,4.80
2019-01-05T16:11:45.505Z,4.80
2019-01-05T16:14:07.362Z,4.80
2019-01-05T16:16:26.611Z,4.80
2019-01-05T16:18:46.845Z,4.80
2019-01-05T16:21:08.648Z,4.80
2019-01-05T16:23:22.909Z,4.80
2019-01-05T16:25:28.221Z,4.80
2019-01-05T16:27:39.366Z,4.90
2019-01-05T16:30:01.173Z,4.90
2019-01-05T16:32:09.056Z,4.80
2019-01-05T16:34:14.316Z,4.80
2019-01-05T16:36:28.827Z,4.80
2019-01-05T16:38:37.128Z,4.80
2019-01-05T16:40:48.600Z,4.80
2019-01-05T16:42:56.910Z,4.80
2019-01-05T16:45:07.769Z,4.80
2019-01-05T16:47:29.119Z,4.80
2019-01-05T16:49:34.501Z,4.80
2019-01-05T16:51:56.016Z,4.90
2019-01-05T16:54:07.277Z,4.90
2019-01-05T16:56:12.570Z,4.90
2019-01-05T16:58:17.874Z,4.90
2019-01-05T17:00:28.853Z,4.90
2019-01-05T17:02:46.448Z,4.90
2019-01-05T17:05:01.337Z,4.90
2019-01-05T17:07:22.962Z,4.90
2019-01-05T17:09:37.044Z,4.90
2019-01-05T17:11:58.740Z,4.90
2019-01-05T17:14:12.966Z,4.90
2019-01-05T17:16:30.409Z,4.90
2019-01-05T17:18:35.823Z,4.90
2019-01-05T17:20:41.074Z,4.90
2019-01-05T17:22:46.460Z,5.00
2019-01-05T17:24:57.315Z,4.90
2019-01-05T17:27:19.123Z,5.00
2019-01-05T17:29:30.558Z,5.00
2019-01-05T17:31:35.885Z,5.10
2019-01-05T17:33:43.649Z,5.10
2019-01-05T17:35:48.866Z,5.10
2019-01-05T17:38:06.466Z,5.10
2019-01-05T17:40:11.717Z,5.10
2019-01-05T17:42:25.633Z,5.20
2019-01-05T17:44:40.166Z,5.20
2019-01-05T17:46:45.489Z,5.20
2019-01-05T17:49:08.719Z,5.30
2019-01-05T17:51:17.004Z,5.30
2019-01-05T17:53:37.613Z,5.30
2019-01-05T17:55:49.024Z,5.30
2019-01-05T17:57:59.786Z,5.30
2019-01-05T18:00:08.741Z,5.30
2019-01-05T18:02:32.718Z,5.30
2019-01-05T18:04:38.140Z,5.30
2019-01-05T18:06:59.565Z,5.40
2019-01-05T18:09:13.523Z,5.30
2019-01-05T18:11:18.820Z,5.30
2019-01-05T18:13:26.840Z,5.30
2019-01-05T18:15:32.167Z,5.30
2019-01-05T18:17:55.822Z,5.30
2019-01-05T18:20:13.111Z,5.30
2019-01-05T18:22:36.555Z,5.30
2019-01-05T18:24:44.902Z,5.30
2019-01-05T18:26:50.213Z,5.20
2019-01-05T18:29:11.529Z,5.20
2019-01-05T18:31:33.035Z,5.20
2019-01-05T18:33:38.350Z,5.20
2019-01-05T18:36:01.857Z,5.30
2019-01-05T18:38:19.105Z,5.30
2019-01-05T18:40:33.409Z,5.20
2019-01-05T18:42:54.856Z,5.20
2019-01-05T18:45:16.736Z,5.20
2019-01-05T18:47:30.858Z,5.20
2019-01-05T18:49:45.214Z,5.10
2019-01-05T18:52:06.753Z,5.10
2019-01-05T18:54:24.383Z,5.10
2019-01-05T18:56:29.701Z,5.10
2019-01-05T18:58:51.422Z,5.10
2019-01-05T19:00:56.784Z,5.10
2019-01-05T19:03:02.091Z,5.10
2019-01-05T19:05:10.734Z,5.10
2019-01-05T19:07:32.003Z,5.00
2019-01-05T19:09:46.685Z,5.00
2019-01-05T19:12:08.716Z,5.00
2019-01-05T19:14:30.475Z,5.00
2019-01-05T19:16:52.275Z,5.00
2019-01-05T19:18:57.579Z,5.10
2019-01-05T19:21:03.014Z,5.00
2019-01-05T19:23:08.419Z,5.00
2019-01-05T19:25:16.660Z,4.90
2019-01-05T19:27:37.994Z,5.00
2019-01-05T19:29:43.213Z,5.00
2019-01-05T19:31:54.452Z,5.00
2019-01-05T19:34:15.977Z,5.00
2019-01-05T19:36:27.486Z,5.00
2019-01-05T19:38:48.531Z,5.00
2019-01-05T19:41:03.058Z,4.90
2019-01-05T19:43:08.441Z,4.90
2019-01-05T19:45:29.786Z,4.90
2019-01-05T19:47:51.748Z,4.90
2019-01-05T19:50:13.288Z,4.90
2019-01-05T19:52:18.712Z,4.90
2019-01-05T19:54:23.959Z,4.90
2019-01-05T19:56:45.852Z,4.90
2019-01-05T19:58:54.259Z,4.90
2019-01-05T20:00:59.580Z,4.90
2019-01-05T20:03:16.972Z,4.90
2019-01-05T20:05:39.070Z,4.90
2019-01-05T20:08:01.232Z,4.90
2019-01-05T20:10:26.231Z,4.90
2019-01-05T20:12:34.714Z,4.90
2019-01-05T20:14:45.961Z,4.90
2019-01-05T20:16:54.786Z,4.90
2019-01-05T20:19:02.924Z,4.90
2019-01-05T20:21:20.121Z,4.90
2019-01-05T20:23:40.571Z,4.90
2019-01-05T20:25:57.740Z,4.90
2019-01-05T20:28:06.115Z,4.80
2019-01-05T20:30:11.853Z,4.90
2019-01-05T20:32:32.553Z,4.90
2019-01-05T20:34:56.156Z,4.80
2019-01-05T20:37:17.815Z,4.80
2019-01-05T20:39:23.195Z,4.80
2019-01-05T20:41:45.109Z,4.80
2019-01-05T20:44:02.698Z,4.80
2019-01-05T20:46:08.021Z,4.90
2019-01-05T20:48:13.410Z,4.90
2019-01-05T20:50:30.827Z,4.80
2019-01-05T20:52:48.049Z,4.90
2019-01-05T20:55:02.703Z,4.90
2019-01-05T20:57:18.604Z,4.90
2019-01-05T20:59:40.810Z,4.90
2019-01-05T21:02:02.882Z,4.80
2019-01-05T21:04:24.175Z,4.80
2019-01-05T21:06:35.510Z,4.90
2019-01-05T21:08:40.981Z,4.80
2019-01-05T21:11:04.165Z,4.80
2019-01-05T21:13:24.269Z,4.80
2019-01-05T21:15:41.344Z,4.80
2019-01-05T21:17:58.928Z,4.80
2019-01-05T21:20:16.491Z,4.70
2019-01-05T21:22:21.852Z,4.80
2019-01-05T21:24:43.671Z,4.80
2019-01-05T21:26:57.647Z,4.90
2019-01-05T21:29:08.769Z,4.80
2019-01-05T21:31:19.573Z,4.80
2019-01-05T21:33:41.067Z,4.80
2019-01-05T21:36:02.768Z,4.80
2019-01-05T21:38:20.123Z,4.80
2019-01-05T21:40:34.774Z,4.80
2019-01-05T21:42:40.025Z,4.80
2019-01-05T21:44:48.298Z,4.80
2019-01-05T21:46:53.616Z,4.80
2019-01-05T21:49:17.113Z,4.80
2019-01-05T21:51:39.049Z,4.80
2019-01-05T21:53:47.608Z,4.80
2019-01-05T21:55:52.928Z,4.80
2019-01-05T21:58:00.660Z,4.80
2019-01-05T22:00:12.126Z,4.70
2019-01-05T22:02:17.397Z,4.70
2019-01-05T22:04:25.824Z,4.70
2019-01-05T22:06:36.743Z,4.70
2019-01-05T22:08:42.035Z,4.60
2019-01-05T22:10:50.060Z,4.70
2019-01-05T22:12:55.370Z,4.70
2019-01-05T22:15:00.702Z,4.70
2019-01-05T22:17:24.146Z,4.70
2019-01-05T22:19:45.945Z,4.70
2019-01-05T22:22:09.809Z,4.70
2019-01-05T22:24:21.200Z,4.80
2019-01-05T22:26:26.515Z,4.70
2019-01-05T22:28:31.809Z,4.70
2019-01-05T22:30:53.662Z,4.70
2019-01-05T22:33:14.240Z,4.70
2019-01-05T22:35:22.062Z,4.70
2019-01-05T22:37:30.390Z,4.70
2019-01-05T22:39:51.920Z,4.70
2019-01-05T22:41:57.239Z,4.70
2019-01-05T22:44:05.092Z,4.70
2019-01-05T22:46:19.383Z,4.70
2019-01-05T22:48:27.232Z,4.70
2019-01-05T22:50:50.499Z,4.70
2019-01-05T22:53:05.645Z,4.80
2019-01-05T22:55:23.677Z,4.70
2019-01-05T22:57:32.155Z,4.70
2019-01-05T22:59:53.813Z,4.70
2019-01-05T23:02:02.290Z,4.70
2019-01-05T23:04:16.313Z,4.70
2019-01-05T23:06:22.368Z,4.70
2019-01-05T23:08:44.279Z,4.70
2019-01-05T23:10:49.700Z,4.70
2019-01-05T23:13:11.401Z,4.70
2019-01-05T23:15:31.896Z,4.70
2019-01-05T23:17:49.197Z,4.70
2019-01-05T23:20:10.619Z,4.70
2019-01-05T23:22:19.252Z,4.70
2019-01-05T23:24:30.310Z,4.70
2019-01-05T23:26:41.750Z,4.70
2019-01-05T23:28:47.072Z,4.70
2019-01-05T23:30:52.497Z,4.80
2019-01-05T23:33:00.730Z,4.80
2019-01-05T23:35:22.922Z,4.70
2019-01-05T23:37:44.423Z,4.70
2019-01-05T23:39:52.218Z,4.70
2019-01-05T23:42:13.772Z,4.70
2019-01-05T23:44:20.544Z,4.70
2019-01-05T23:46:32.110Z,4.70
2019-01-05T23:48:53.971Z,4.80
2019-01-05T23:51:14.606Z,4.80
2019-01-05T23:53:36.193Z,4.70
2019-01-05T23:55:57.726Z,4.80
2019-01-05T23:58:44.299Z,4.80
